F/V Mailys Charlie — FMIW — position and weather

sailwx.info

Track history (hours):
 
Tides and Currents Weather Stations Pressure Air Temp Water Temp Dewpoint Dewpoint Depression Visibility Wind Speed Wind Dir Waves Ship Positions

F/V Mailys Charlie

Last reported at 2015-Mar-09 16:12 UTC. Time now 2015-Apr-02 06:37 UTC.
Position N 47°28' W 005°25'.
Warning: this ship's position is 23 days out of date.

Length 19 m.

Type: Fishing. MMSI: 228240800.

Date/timePositionNaut miles runAvg speedWind from/ knotsBaromVisibWave heightAir tempDewpointWater temp
2015-Mar-09 16:12N 47°28' W 005°25'1 0.3
2015-Mar-09 12:32N 47°28' W 005°26'3 3.0
2015-Mar-09 11:33N 47°25' W 005°27'37 1.5
2015-Mar-08 11:29N 47°45' W 004°42'27 8.6
2015-Mar-08 08:19N 47°46' W 004°01'62 2.5
2015-Mar-07 07:06N 47°26' W 005°28'2 2.3
2015-Mar-07 06:23N 47°25' W 005°26'2 2.3
2015-Mar-07 05:33N 47°24' W 005°24'3 0.6
2015-Mar-07 01:06N 47°26' W 005°25'1 2.5
2015-Mar-07 00:31N 47°25' W 005°23'4 4.0
2015-Mar-06 23:33N 47°22' W 005°24'4 1.8
2015-Mar-06 21:27N 47°26' W 005°24'3 2.6
2015-Mar-06 20:17N 47°23' W 005°23'3 1.4
2015-Mar-06 18:21N 47°25' W 005°23'5 1.2
2015-Mar-06 14:29N 47°21' W 005°21'7 6.3
2015-Mar-06 13:21N 47°15' W 005°16'54 2.5
2015-Mar-05 15:32N 47°44' W 004°09'  
2015-Mar-02 22:19N 47°16' W 003°03'9 8.2
2015-Mar-02 21:13N 47°18' W 002°50'5 8.0
2015-Mar-02 20:33N 47°18' W 002°43'  
Track history (hours):
 
Tides and Currents Weather Stations Pressure Air Temp Water Temp Dewpoint Dewpoint Depression Visibility Wind Speed Wind Dir Waves Ship Positions

F/V Mailys Charlie

Last reported at 2015-Mar-09 16:12 UTC. Time now 2015-Apr-02 06:37 UTC.
Position N 47°28' W 005°25'.
Warning: this ship's position is 23 days out of date.

Length 19 m.

Type: Fishing. MMSI: 228240800.

Date/timePositionNaut miles runAvg speedWind from/ knotsBaromVisibWave heightAir tempDewpointWater temp
2015-Mar-09 16:12N 47°28' W 005°25'1 0.3
2015-Mar-09 12:32N 47°28' W 005°26'3 3.0
2015-Mar-09 11:33N 47°25' W 005°27'37 1.5
2015-Mar-08 11:29N 47°45' W 004°42'27 8.6
2015-Mar-08 08:19N 47°46' W 004°01'62 2.5
2015-Mar-07 07:06N 47°26' W 005°28'2 2.3
2015-Mar-07 06:23N 47°25' W 005°26'2 2.3
2015-Mar-07 05:33N 47°24' W 005°24'3 0.6
2015-Mar-07 01:06N 47°26' W 005°25'1 2.5
2015-Mar-07 00:31N 47°25' W 005°23'4 4.0
2015-Mar-06 23:33N 47°22' W 005°24'4 1.8
2015-Mar-06 21:27N 47°26' W 005°24'3 2.6
2015-Mar-06 20:17N 47°23' W 005°23'3 1.4
2015-Mar-06 18:21N 47°25' W 005°23'5 1.2
2015-Mar-06 14:29N 47°21' W 005°21'7 6.3
2015-Mar-06 13:21N 47°15' W 005°16'54 2.5
2015-Mar-05 15:32N 47°44' W 004°09'  
2015-Mar-02 22:19N 47°16' W 003°03'9 8.2
2015-Mar-02 21:13N 47°18' W 002°50'5 8.0
2015-Mar-02 20:33N 47°18' W 002°43'  

Dump ship's entire track history